sensor_id;sensor_type;location;lat;lon;timestamp;pressure;altitude;pressure_sealevel;temperature
48003;BMP280;33768;48.578;11.574;2024-03-25T00:02:11;95624.56;;;4.38
48003;BMP280;33768;48.578;11.574;2024-03-25T00:05:15;95626.31;;;4.36
48003;BMP280;33768;48.578;11.574;2024-03-25T00:08:24;95633.16;;;4.37
48003;BMP280;33768;48.578;11.574;2024-03-25T00:11:28;95622.59;;;4.39
48003;BMP280;33768;48.578;11.574;2024-03-25T00:14:32;95613.75;;;4.38
48003;BMP280;33768;48.578;11.574;2024-03-25T00:17:36;95616.50;;;4.33
48003;BMP280;33768;48.578;11.574;2024-03-25T00:20:40;95616.00;;;4.35
48003;BMP280;33768;48.578;11.574;2024-03-25T00:23:44;95618.97;;;4.31
48003;BMP280;33768;48.578;11.574;2024-03-25T00:26:49;95613.28;;;4.35
48003;BMP280;33768;48.578;11.574;2024-03-25T00:29:53;95616.50;;;4.33
48003;BMP280;33768;48.578;11.574;2024-03-25T00:32:57;95617.72;;;4.32
48003;BMP280;33768;48.578;11.574;2024-03-25T00:36:01;95608.16;;;4.31
48003;BMP280;33768;48.578;11.574;2024-03-25T00:39:06;95608.44;;;4.28
48003;BMP280;33768;48.578;11.574;2024-03-25T00:42:11;95611.38;;;4.30
48003;BMP280;33768;48.578;11.574;2024-03-25T00:45:16;95615.81;;;4.27
48003;BMP280;33768;48.578;11.574;2024-03-25T00:48:20;95605.22;;;4.29
48003;BMP280;33768;48.578;11.574;2024-03-25T00:51:24;95612.38;;;4.27
48003;BMP280;33768;48.578;11.574;2024-03-25T00:54:29;95602.78;;;4.26
48003;BMP280;33768;48.578;11.574;2024-03-25T00:57:33;95603.53;;;4.26
48003;BMP280;33768;48.578;11.574;2024-03-25T01:00:37;95603.03;;;4.28
48003;BMP280;33768;48.578;11.574;2024-03-25T01:03:41;95603.25;;;4.30
48003;BMP280;33768;48.578;11.574;2024-03-25T01:06:46;95602.78;;;4.26
48003;BMP280;33768;48.578;11.574;2024-03-25T01:09:50;95607.03;;;4.21
48003;BMP280;33768;48.578;11.574;2024-03-25T01:12:54;95597.66;;;4.22
48003;BMP280;33768;48.578;11.574;2024-03-25T01:15:58;95602.84;;;4.20
48003;BMP280;33768;48.578;11.574;2024-03-25T01:19:03;95595.97;;;4.19
48003;BMP280;33768;48.578;11.574;2024-03-25T01:22:08;95602.63;;;4.18
48003;BMP280;33768;48.578;11.574;2024-03-25T01:25:12;95596.75;;;4.14
48003;BMP280;33768;48.578;11.574;2024-03-25T01:28:16;95598.97;;;4.16
48003;BMP280;33768;48.578;11.574;2024-03-25T01:31:21;95602.88;;;4.15
48003;BMP280;33768;48.578;11.574;2024-03-25T01:34:25;95599.94;;;4.13
48003;BMP280;33768;48.578;11.574;2024-03-25T01:37:29;95606.09;;;4.13
48003;BMP280;33768;48.578;11.574;2024-03-25T01:40:34;95608.78;;;4.13
48003;BMP280;33768;48.578;11.574;2024-03-25T01:43:38;95605.84;;;4.11
48003;BMP280;33768;48.578;11.574;2024-03-25T01:46:43;95604.38;;;4.10
48003;BMP280;33768;48.578;11.574;2024-03-25T01:49:47;95608.09;;;4.07
48003;BMP280;33768;48.578;11.574;2024-03-25T01:52:52;95622.56;;;4.10
48003;BMP280;33768;48.578;11.574;2024-03-25T01:55:57;95622.78;;;4.12
48003;BMP280;33768;48.578;11.574;2024-03-25T01:59:03;95619.81;;;4.15
48003;BMP280;33768;48.578;11.574;2024-03-25T02:02:08;95614.88;;;4.19
48003;BMP280;33768;48.578;11.574;2024-03-25T02:05:15;95616.34;;;4.20
48003;BMP280;33768;48.578;11.574;2024-03-25T02:08:20;95618.03;;;4.23
48003;BMP280;33768;48.578;11.574;2024-03-25T02:11:25;95616.56;;;4.22
48003;BMP280;33768;48.578;11.574;2024-03-25T02:14:30;95618.56;;;4.22
48003;BMP280;33768;48.578;11.574;2024-03-25T02:17:34;95620.72;;;4.23
48003;BMP280;33768;48.578;11.574;2024-03-25T02:20:39;95616.28;;;4.31
48003;BMP280;33768;48.578;11.574;2024-03-25T02:23:45;95611.84;;;4.28
48003;BMP280;33768;48.578;11.574;2024-03-25T02:26:50;95619.19;;;4.33
48003;BMP280;33768;48.578;11.574;2024-03-25T02:30:01;95613.06;;;4.33
48003;BMP280;33768;48.578;11.574;2024-03-25T02:33:05;95611.56;;;4.37
48003;BMP280;33768;48.578;11.574;2024-03-25T02:36:10;95601.72;;;4.39
48003;BMP280;33768;48.578;11.574;2024-03-25T02:39:16;95611.78;;;4.39
48003;BMP280;33768;48.578;11.574;2024-03-25T02:42:20;95617.19;;;4.39
48003;BMP280;33768;48.578;11.574;2024-03-25T02:45:25;95621.63;;;4.36
48003;BMP280;33768;48.578;11.574;2024-03-25T02:48:29;95607.16;;;4.34
48003;BMP280;33768;48.578;11.574;2024-03-25T02:51:33;95610.88;;;4.31
48003;BMP280;33768;48.578;11.574;2024-03-25T02:54:37;95618.97;;;4.31
48003;BMP280;33768;48.578;11.574;2024-03-25T02:57:41;95618.75;;;4.29
48003;BMP280;33768;48.578;11.574;2024-03-25T03:00:45;95619.19;;;4.33
48003;BMP280;33768;48.578;11.574;2024-03-25T03:03:50;95611.13;;;4.28
48003;BMP280;33768;48.578;11.574;2024-03-25T03:06:54;95613.88;;;4.22
48003;BMP280;33768;48.578;11.574;2024-03-25T03:09:58;95621.28;;;4.16
48003;BMP280;33768;48.578;11.574;2024-03-25T03:13:02;95624.25;;;4.13
48003;BMP280;33768;48.578;11.574;2024-03-25T03:16:06;95618.59;;;4.16
48003;BMP280;33768;48.578;11.574;2024-03-25T03:19:10;95618.06;;;4.18
48003;BMP280;33768;48.578;11.574;2024-03-25T03:22:25;95625.69;;;4.19
48003;BMP280;33768;48.578;11.574;2024-03-25T03:25:30;95633.50;;;4.23
48003;BMP280;33768;48.578;11.574;2024-03-25T03:28:34;95631.78;;;4.25
48003;BMP280;33768;48.578;11.574;2024-03-25T03:31:38;95634.47;;;4.25
48003;BMP280;33768;48.578;11.574;2024-03-25T03:34:42;95628.84;;;4.23
48003;BMP280;33768;48.578;11.574;2024-03-25T03:37:46;95627.13;;;4.20
48003;BMP280;33768;48.578;11.574;2024-03-25T03:41:02;95626.66;;;4.22
48003;BMP280;33768;48.578;11.574;2024-03-25T03:44:07;95633.03;;;4.24
48003;BMP280;33768;48.578;11.574;2024-03-25T03:47:11;95628.06;;;4.28
48003;BMP280;33768;48.578;11.574;2024-03-25T03:50:15;95625.38;;;4.28
48003;BMP280;33768;48.578;11.574;2024-03-25T03:53:20;95626.84;;;4.29
48003;BMP280;33768;48.578;11.574;2024-03-25T03:56:24;95624.16;;;4.29
48003;BMP280;33768;48.578;11.574;2024-03-25T03:59:28;95622.41;;;4.32
48003;BMP280;33768;48.578;11.574;2024-03-25T04:02:32;95629.25;;;4.33
48003;BMP280;33768;48.578;11.574;2024-03-25T04:05:37;95624.81;;;4.35
48003;BMP280;33768;48.578;11.574;2024-03-25T04:08:41;95642.97;;;4.40
48003;BMP280;33768;48.578;11.574;2024-03-25T04:11:45;95627.28;;;4.38
48003;BMP280;33768;48.578;11.574;2024-03-25T04:14:50;95630.94;;;4.41
48003;BMP280;33768;48.578;11.574;2024-03-25T04:17:59;95647.16;;;4.41
48003;BMP280;33768;48.578;11.574;2024-03-25T04:21:03;95636.16;;;4.34
48003;BMP280;33768;48.578;11.574;2024-03-25T04:24:08;95651.59;;;4.33
48003;BMP280;33768;48.578;11.574;2024-03-25T04:27:12;95650.38;;;4.34
48003;BMP280;33768;48.578;11.574;2024-03-25T04:30:16;95641.81;;;4.30
48003;BMP280;33768;48.578;11.574;2024-03-25T04:33:20;95641.81;;;4.30
48003;BMP280;33768;48.578;11.574;2024-03-25T04:36:25;95649.19;;;4.30
48003;BMP280;33768;48.578;11.574;2024-03-25T04:39:29;95652.16;;;4.26
48003;BMP280;33768;48.578;11.574;2024-03-25T04:42:33;95659.25;;;4.29
48003;BMP280;33768;48.578;11.574;2024-03-25T04:45:37;95654.59;;;4.30
48003;BMP280;33768;48.578;11.574;2024-03-25T04:48:41;95653.84;;;4.29
48003;BMP280;33768;48.578;11.574;2024-03-25T04:51:45;95655.06;;;4.28
48003;BMP280;33768;48.578;11.574;2024-03-25T04:54:49;95652.69;;;4.19
48003;BMP280;33768;48.578;11.574;2024-03-25T04:57:53;95651.78;;;4.11
48003;BMP280;33768;48.578;11.574;2024-03-25T05:00:58;95657.22;;;4.06
48003;BMP280;33768;48.578;11.574;2024-03-25T05:04:02;95658.69;;;4.02
48003;BMP280;33768;48.578;11.574;2024-03-25T05:07:06;95665.88;;;3.94
48003;BMP280;33768;48.578;11.574;2024-03-25T05:10:11;95667.13;;;3.87
48003;BMP280;33768;48.578;11.574;2024-03-25T05:13:15;95670.09;;;3.84
48003;BMP280;33768;48.578;11.574;2024-03-25T05:16:19;95672.81;;;3.78
48003;BMP280;33768;48.578;11.574;2024-03-25T05:19:23;95663.50;;;3.74
48003;BMP280;33768;48.578;11.574;2024-03-25T05:22:27;95685.09;;;3.74
48003;BMP280;33768;48.578;11.574;2024-03-25T05:25:31;95677.06;;;3.63
48003;BMP280;33768;48.578;11.574;2024-03-25T05:28:35;95686.63;;;3.59
48003;BMP280;33768;48.578;11.574;2024-03-25T05:31:59;95699.63;;;3.60
48003;BMP280;33768;48.578;11.574;2024-03-25T05:35:03;95704.03;;;3.69
48003;BMP280;33768;48.578;11.574;2024-03-25T05:38:08;95698.53;;;3.85
48003;BMP280;33768;48.578;11.574;2024-03-25T05:41:12;95694.84;;;3.88
48003;BMP280;33768;48.578;11.574;2024-03-25T05:44:16;95701.31;;;4.19
48003;BMP280;33768;48.578;11.574;2024-03-25T05:47:21;95711.19;;;4.80
48003;BMP280;33768;48.578;11.574;2024-03-25T05:50:25;95711.38;;;5.17
48003;BMP280;33768;48.578;11.574;2024-03-25T05:53:31;95712.34;;;5.19
48003;BMP280;33768;48.578;11.574;2024-03-25T05:56:35;95720.47;;;4.90
48003;BMP280;33768;48.578;11.574;2024-03-25T05:59:39;95716.50;;;4.91
48003;BMP280;33768;48.578;11.574;2024-03-25T06:02:43;95712.22;;;4.77
48003;BMP280;33768;48.578;11.574;2024-03-25T06:05:48;95714.09;;;4.59
48003;BMP280;33768;48.578;11.574;2024-03-25T06:08:52;95717.00;;;4.61
48003;BMP280;33768;48.578;11.574;2024-03-25T06:11:57;95714.91;;;4.43
48003;BMP280;33768;48.578;11.574;2024-03-25T06:15:01;95712.00;;;4.35
48003;BMP280;33768;48.578;11.574;2024-03-25T06:18:05;95721.31;;;4.40
48003;BMP280;33768;48.578;11.574;2024-03-25T06:21:10;95723.38;;;4.29
48003;BMP280;33768;48.578;11.574;2024-03-25T06:24:15;95718.56;;;4.11
48003;BMP280;33768;48.578;11.574;2024-03-25T06:27:19;95723.38;;;4.23
48003;BMP280;33768;48.578;11.574;2024-03-25T06:30:24;95731.88;;;4.38
48003;BMP280;33768;48.578;11.574;2024-03-25T06:33:47;95732.09;;;4.80
48003;BMP280;33768;48.578;11.574;2024-03-25T06:37:10;95737.91;;;5.18
48003;BMP280;33768;48.578;11.574;2024-03-25T06:40:14;95738.22;;;5.38
48003;BMP280;33768;48.578;11.574;2024-03-25T06:43:18;95734.41;;;5.76
48003;BMP280;33768;48.578;11.574;2024-03-25T06:46:22;95742.53;;;5.76
48003;BMP280;33768;48.578;11.574;2024-03-25T06:49:26;95735.75;;;6.06
48003;BMP280;33768;48.578;11.574;2024-03-25T06:52:31;95734.47;;;6.30
48003;BMP280;33768;48.578;11.574;2024-03-25T06:55:36;95731.34;;;6.57
48003;BMP280;33768;48.578;11.574;2024-03-25T06:58:40;95733.34;;;7.19
48003;BMP280;33768;48.578;11.574;2024-03-25T07:01:45;95723.81;;;7.69
48003;BMP280;33768;48.578;11.574;2024-03-25T07:04:50;95730.69;;;7.83
48003;BMP280;33768;48.578;11.574;2024-03-25T07:07:54;95731.84;;;8.00
48003;BMP280;33768;48.578;11.574;2024-03-25T07:10:58;95743.25;;;8.24
48003;BMP280;33768;48.578;11.574;2024-03-25T07:14:03;95735.81;;;8.25
48003;BMP280;33768;48.578;11.574;2024-03-25T07:17:08;95738.06;;;8.59
48003;BMP280;33768;48.578;11.574;2024-03-25T07:20:12;95732.91;;;8.89
48003;BMP280;33768;48.578;11.574;2024-03-25T07:23:16;95737.56;;;9.01
48003;BMP280;33768;48.578;11.574;2024-03-25T07:26:21;95743.28;;;9.10
48003;BMP280;33768;48.578;11.574;2024-03-25T07:29:25;95736.53;;;8.71
48003;BMP280;33768;48.578;11.574;2024-03-25T07:32:30;95729.91;;;8.59
48003;BMP280;33768;48.578;11.574;2024-03-25T07:35:34;95731.84;;;8.92
48003;BMP280;33768;48.578;11.574;2024-03-25T07:38:39;95735.13;;;9.31
48003;BMP280;33768;48.578;11.574;2024-03-25T07:41:43;95726.09;;;9.15
48003;BMP280;33768;48.578;11.574;2024-03-25T07:44:47;95738.16;;;9.07
48003;BMP280;33768;48.578;11.574;2024-03-25T07:47:52;95725.22;;;8.80
48003;BMP280;33768;48.578;11.574;2024-03-25T07:50:56;95740.06;;;8.46
48003;BMP280;33768;48.578;11.574;2024-03-25T07:54:00;95743.38;;;8.19
48003;BMP280;33768;48.578;11.574;2024-03-25T07:57:04;95739.06;;;7.98
48003;BMP280;33768;48.578;11.574;2024-03-25T08:00:08;95743.16;;;8.04
48003;BMP280;33768;48.578;11.574;2024-03-25T08:03:17;95745.34;;;8.64
48003;BMP280;33768;48.578;11.574;2024-03-25T08:06:21;95744.63;;;8.64
48003;BMP280;33768;48.578;11.574;2024-03-25T08:09:26;95738.97;;;9.15
48003;BMP280;33768;48.578;11.574;2024-03-25T08:12:30;95740.06;;;9.60
48003;BMP280;33768;48.578;11.574;2024-03-25T08:15:34;95736.00;;;10.01
48003;BMP280;33768;48.578;11.574;2024-03-25T08:18:38;95742.59;;;10.13
48003;BMP280;33768;48.578;11.574;2024-03-25T08:21:42;95737.69;;;10.46
48003;BMP280;33768;48.578;11.574;2024-03-25T08:24:47;95736.31;;;10.75
48003;BMP280;33768;48.578;11.574;2024-03-25T08:27:51;95736.69;;;10.71
48003;BMP280;33768;48.578;11.574;2024-03-25T08:30:55;95732.72;;;10.37
48003;BMP280;33768;48.578;11.574;2024-03-25T08:33:59;95729.38;;;9.89
48003;BMP280;33768;48.578;11.574;2024-03-25T08:37:04;95724.06;;;9.56
48003;BMP280;33768;48.578;11.574;2024-03-25T08:40:08;95726.88;;;9.43
48003;BMP280;33768;48.578;11.574;2024-03-25T08:43:13;95736.88;;;9.96
48003;BMP280;33768;48.578;11.574;2024-03-25T08:46:17;95721.72;;;10.65
48003;BMP280;33768;48.578;11.574;2024-03-25T08:49:21;95707.03;;;12.08
48003;BMP280;33768;48.578;11.574;2024-03-25T08:52:25;95700.91;;;12.39
48003;BMP280;33768;48.578;11.574;2024-03-25T08:55:30;95727.25;;;12.27
48003;BMP280;33768;48.578;11.574;2024-03-25T08:58:35;95726.22;;;11.93
48003;BMP280;33768;48.578;11.574;2024-03-25T09:01:39;95713.00;;;12.29
48003;BMP280;33768;48.578;11.574;2024-03-25T09:04:43;95725.53;;;12.39
48003;BMP280;33768;48.578;11.574;2024-03-25T09:07:50;95718.88;;;13.03
48003;BMP280;33768;48.578;11.574;2024-03-25T09:10:55;95720.31;;;13.04
48003;BMP280;33768;48.578;11.574;2024-03-25T09:14:11;95717.50;;;13.19
48003;BMP280;33768;48.578;11.574;2024-03-25T09:17:15;95708.47;;;13.50
48003;BMP280;33768;48.578;11.574;2024-03-25T09:20:21;95718.50;;;13.55
48003;BMP280;33768;48.578;11.574;2024-03-25T09:23:25;95710.63;;;13.59
48003;BMP280;33768;48.578;11.574;2024-03-25T09:26:29;95718.53;;;13.72
48003;BMP280;33768;48.578;11.574;2024-03-25T09:29:33;95696.59;;;13.72
48003;BMP280;33768;48.578;11.574;2024-03-25T09:32:38;95683.88;;;14.93
48003;BMP280;33768;48.578;11.574;2024-03-25T09:35:42;95688.13;;;15.30
48003;BMP280;33768;48.578;11.574;2024-03-25T09:38:46;95691.28;;;15.00
48003;BMP280;33768;48.578;11.574;2024-03-25T09:41:55;95694.91;;;15.29
48003;BMP280;33768;48.578;11.574;2024-03-25T09:44:59;95690.81;;;15.56
48003;BMP280;33768;48.578;11.574;2024-03-25T09:48:05;95691.44;;;15.02
48003;BMP280;33768;48.578;11.574;2024-03-25T09:51:10;95694.00;;;13.98
48003;BMP280;33768;48.578;11.574;2024-03-25T09:54:14;95699.34;;;12.99
48003;BMP280;33768;48.578;11.574;2024-03-25T09:57:19;95682.72;;;13.29
48003;BMP280;33768;48.578;11.574;2024-03-25T10:00:26;95687.84;;;14.57
48003;BMP280;33768;48.578;11.574;2024-03-25T10:03:30;95687.03;;;15.16
48003;BMP280;33768;48.578;11.574;2024-03-25T10:06:34;95680.75;;;14.37
48003;BMP280;33768;48.578;11.574;2024-03-25T10:09:39;95681.38;;;13.13
48003;BMP280;33768;48.578;11.574;2024-03-25T10:12:44;95680.00;;;12.19
48003;BMP280;33768;48.578;11.574;2024-03-25T10:15:48;95675.41;;;11.61
48003;BMP280;33768;48.578;11.574;2024-03-25T10:18:53;95665.75;;;11.08
48003;BMP280;33768;48.578;11.574;2024-03-25T10:22:05;95663.94;;;11.11
48003;BMP280;33768;48.578;11.574;2024-03-25T10:25:29;95661.22;;;11.48
48003;BMP280;33768;48.578;11.574;2024-03-25T10:28:34;95662.25;;;11.82
48003;BMP280;33768;48.578;11.574;2024-03-25T10:31:38;95667.78;;;11.67
48003;BMP280;33768;48.578;11.574;2024-03-25T10:34:42;95659.22;;;11.48
48003;BMP280;33768;48.578;11.574;2024-03-25T10:37:47;95648.13;;;11.17
48003;BMP280;33768;48.578;11.574;2024-03-25T10:40:54;95654.81;;;10.79
48003;BMP280;33768;48.578;11.574;2024-03-25T10:44:02;95646.81;;;10.81
48003;BMP280;33768;48.578;11.574;2024-03-25T10:47:11;95653.66;;;10.52
48003;BMP280;33768;48.578;11.574;2024-03-25T10:50:22;95642.41;;;10.48
48003;BMP280;33768;48.578;11.574;2024-03-25T10:53:28;95637.53;;;11.06
48003;BMP280;33768;48.578;11.574;2024-03-25T10:56:33;95631.94;;;13.04
48003;BMP280;33768;48.578;11.574;2024-03-25T10:59:38;95617.47;;;14.35
48003;BMP280;33768;48.578;11.574;2024-03-25T11:02:45;95607.78;;;15.12
48003;BMP280;33768;48.578;11.574;2024-03-25T11:05:49;95606.88;;;15.64
48003;BMP280;33768;48.578;11.574;2024-03-25T11:08:59;95591.41;;;15.78
48003;BMP280;33768;48.578;11.574;2024-03-25T11:12:03;95589.28;;;15.32
48003;BMP280;33768;48.578;11.574;2024-03-25T11:15:09;95591.63;;;15.44
48003;BMP280;33768;48.578;11.574;2024-03-25T11:18:15;95558.84;;;15.93
48003;BMP280;33768;48.578;11.574;2024-03-25T11:21:26;95558.19;;;16.51
48003;BMP280;33768;48.578;11.574;2024-03-25T11:24:30;95558.06;;;16.49
48003;BMP280;33768;48.578;11.574;2024-03-25T11:27:36;95561.13;;;16.25
48003;BMP280;33768;48.578;11.574;2024-03-25T11:30:40;95558.53;;;16.08
48003;BMP280;33768;48.578;11.574;2024-03-25T11:33:45;95556.66;;;16.01
48003;BMP280;33768;48.578;11.574;2024-03-25T11:36:49;95549.00;;;15.90
48003;BMP280;33768;48.578;11.574;2024-03-25T11:40:03;95546.66;;;15.49
48003;BMP280;33768;48.578;11.574;2024-03-25T11:43:08;95532.75;;;14.93
48003;BMP280;33768;48.578;11.574;2024-03-25T11:46:17;95542.63;;;13.92
48003;BMP280;33768;48.578;11.574;2024-03-25T11:49:21;95537.56;;;13.55
48003;BMP280;33768;48.578;11.574;2024-03-25T11:52:34;95524.16;;;13.25
48003;BMP280;33768;48.578;11.574;2024-03-25T11:55:39;95521.75;;;13.63
48003;BMP280;33768;48.578;11.574;2024-03-25T11:58:44;95510.81;;;14.58
48003;BMP280;33768;48.578;11.574;2024-03-25T12:01:50;95507.31;;;15.65
48003;BMP280;33768;48.578;11.574;2024-03-25T12:04:55;95512.06;;;15.46
48003;BMP280;33768;48.578;11.574;2024-03-25T12:08:08;95505.72;;;14.99
48003;BMP280;33768;48.578;11.574;2024-03-25T12:11:12;95500.31;;;15.18
48003;BMP280;33768;48.578;11.574;2024-03-25T12:14:23;95504.09;;;15.69
48003;BMP280;33768;48.578;11.574;2024-03-25T12:17:28;95494.34;;;16.24
48003;BMP280;33768;48.578;11.574;2024-03-25T12:20:33;95481.06;;;17.11
48003;BMP280;33768;48.578;11.574;2024-03-25T12:23:37;95477.34;;;16.76
48003;BMP280;33768;48.578;11.574;2024-03-25T12:26:42;95471.16;;;16.96
48003;BMP280;33768;48.578;11.574;2024-03-25T12:29:57;95470.53;;;17.81
48003;BMP280;33768;48.578;11.574;2024-03-25T12:33:01;95463.53;;;18.66
48003;BMP280;33768;48.578;11.574;2024-03-25T12:36:06;95446.16;;;18.98
48003;BMP280;33768;48.578;11.574;2024-03-25T12:39:16;95452.56;;;18.34
48003;BMP280;33768;48.578;11.574;2024-03-25T12:42:20;95439.72;;;18.27
48003;BMP280;33768;48.578;11.574;2024-03-25T12:45:24;95441.25;;;18.08
48003;BMP280;33768;48.578;11.574;2024-03-25T12:48:28;95446.84;;;16.84
48003;BMP280;33768;48.578;11.574;2024-03-25T12:51:33;95435.22;;;16.85
48003;BMP280;33768;48.578;11.574;2024-03-25T12:54:37;95433.59;;;16.41
48003;BMP280;33768;48.578;11.574;2024-03-25T12:57:41;95432.06;;;16.59
48003;BMP280;33768;48.578;11.574;2024-03-25T13:00:46;95427.63;;;16.74
48003;BMP280;33768;48.578;11.574;2024-03-25T13:03:50;95427.63;;;16.44
48003;BMP280;33768;48.578;11.574;2024-03-25T13:06:54;95415.81;;;16.83
48003;BMP280;33768;48.578;11.574;2024-03-25T13:09:58;95406.66;;;17.63
48003;BMP280;33768;48.578;11.574;2024-03-25T13:13:04;95404.28;;;18.24
48003;BMP280;33768;48.578;11.574;2024-03-25T13:16:09;95394.22;;;18.51
48003;BMP280;33768;48.578;11.574;2024-03-25T13:19:14;95400.25;;;18.48
48003;BMP280;33768;48.578;11.574;2024-03-25T13:22:18;95396.38;;;18.64
48003;BMP280;33768;48.578;11.574;2024-03-25T13:25:22;95389.66;;;18.67
48003;BMP280;33768;48.578;11.574;2024-03-25T13:28:26;95388.69;;;18.96
48003;BMP280;33768;48.578;11.574;2024-03-25T13:31:30;95375.38;;;18.70
48003;BMP280;33768;48.578;11.574;2024-03-25T13:34:34;95371.16;;;18.69
48003;BMP280;33768;48.578;11.574;2024-03-25T13:37:39;95365.53;;;17.79
48003;BMP280;33768;48.578;11.574;2024-03-25T13:40:43;95361.97;;;16.91
48003;BMP280;33768;48.578;11.574;2024-03-25T13:43:47;95361.06;;;16.18
48003;BMP280;33768;48.578;11.574;2024-03-25T13:46:52;95345.09;;;15.96
48003;BMP280;33768;48.578;11.574;2024-03-25T13:50:03;95349.03;;;15.16
48003;BMP280;33768;48.578;11.574;2024-03-25T13:53:09;95343.78;;;14.54
48003;BMP280;33768;48.578;11.574;2024-03-25T13:56:13;95344.75;;;14.40
48003;BMP280;33768;48.578;11.574;2024-03-25T13:59:18;95340.47;;;14.93
48003;BMP280;33768;48.578;11.574;2024-03-25T14:02:23;95332.66;;;14.80
48003;BMP280;33768;48.578;11.574;2024-03-25T14:05:28;95324.25;;;14.78
48003;BMP280;33768;48.578;11.574;2024-03-25T14:08:32;95326.88;;;14.95
48003;BMP280;33768;48.578;11.574;2024-03-25T14:11:37;95314.16;;;15.00
48003;BMP280;33768;48.578;11.574;2024-03-25T14:14:41;95314.84;;;14.44
48003;BMP280;33768;48.578;11.574;2024-03-25T14:17:45;95312.06;;;14.25
48003;BMP280;33768;48.578;11.574;2024-03-25T14:20:51;95302.84;;;14.39
48003;BMP280;33768;48.578;11.574;2024-03-25T14:23:55;95305.53;;;14.11
48003;BMP280;33768;48.578;11.574;2024-03-25T14:27:00;95296.00;;;14.12
48003;BMP280;33768;48.578;11.574;2024-03-25T14:30:05;95307.88;;;14.34
48003;BMP280;33768;48.578;11.574;2024-03-25T14:33:10;95293.34;;;13.60
48003;BMP280;33768;48.578;11.574;2024-03-25T14:36:14;95283.84;;;13.35
48003;BMP280;33768;48.578;11.574;2024-03-25T14:39:18;95272.78;;;13.78
48003;BMP280;33768;48.578;11.574;2024-03-25T14:42:22;95268.56;;;14.12
48003;BMP280;33768;48.578;11.574;2024-03-25T14:45:27;95257.34;;;14.37
48003;BMP280;33768;48.578;11.574;2024-03-25T14:48:33;95258.34;;;14.22
48003;BMP280;33768;48.578;11.574;2024-03-25T14:51:37;95256.59;;;14.17
48003;BMP280;33768;48.578;11.574;2024-03-25T14:54:41;95264.38;;;13.67
48003;BMP280;33768;48.578;11.574;2024-03-25T14:57:46;95258.66;;;13.81
48003;BMP280;33768;48.578;11.574;2024-03-25T15:00:50;95248.16;;;13.97
48003;BMP280;33768;48.578;11.574;2024-03-25T15:03:54;95247.56;;;13.89
48003;BMP280;33768;48.578;11.574;2024-03-25T15:06:59;95238.50;;;13.60
48003;BMP280;33768;48.578;11.574;2024-03-25T15:10:03;95238.88;;;13.12
48003;BMP280;33768;48.578;11.574;2024-03-25T15:13:08;95233.41;;;13.12
48003;BMP280;33768;48.578;11.574;2024-03-25T15:16:12;95224.16;;;13.08
48003;BMP280;33768;48.578;11.574;2024-03-25T15:19:16;95229.78;;;12.67
48003;BMP280;33768;48.578;11.574;2024-03-25T15:22:21;95235.38;;;12.43
48003;BMP280;33768;48.578;11.574;2024-03-25T15:25:25;95240.75;;;12.33
48003;BMP280;33768;48.578;11.574;2024-03-25T15:28:31;95227.00;;;12.24
48003;BMP280;33768;48.578;11.574;2024-03-25T15:31:37;95224.66;;;12.20
48003;BMP280;33768;48.578;11.574;2024-03-25T15:34:42;95209.78;;;12.14
48003;BMP280;33768;48.578;11.574;2024-03-25T15:37:46;95203.91;;;12.18
48003;BMP280;33768;48.578;11.574;2024-03-25T15:40:51;95188.22;;;12.01
48003;BMP280;33768;48.578;11.574;2024-03-25T15:43:56;95199.91;;;11.44
48003;BMP280;33768;48.578;11.574;2024-03-25T15:47:00;95192.66;;;11.08
48003;BMP280;33768;48.578;11.574;2024-03-25T15:50:06;95185.59;;;11.05
48003;BMP280;33768;48.578;11.574;2024-03-25T15:53:10;95176.44;;;10.86
48003;BMP280;33768;48.578;11.574;2024-03-25T15:56:14;95178.28;;;10.52
48003;BMP280;33768;48.578;11.574;2024-03-25T15:59:19;95177.94;;;10.40
48003;BMP280;33768;48.578;11.574;2024-03-25T16:02:23;95178.72;;;10.33
48003;BMP280;33768;48.578;11.574;2024-03-25T16:05:28;95175.81;;;10.31
48003;BMP280;33768;48.578;11.574;2024-03-25T16:08:33;95170.69;;;10.35
48003;BMP280;33768;48.578;11.574;2024-03-25T16:11:37;95165.06;;;10.41
48003;BMP280;33768;48.578;11.574;2024-03-25T16:14:41;95157.03;;;10.43
48003;BMP280;33768;48.578;11.574;2024-03-25T16:17:47;95153.50;;;10.26
48003;BMP280;33768;48.578;11.574;2024-03-25T16:20:52;95144.09;;;10.12
48003;BMP280;33768;48.578;11.574;2024-03-25T16:23:56;95144.31;;;10.06
48003;BMP280;33768;48.578;11.574;2024-03-25T16:27:02;95147.22;;;10.01
48003;BMP280;33768;48.578;11.574;2024-03-25T16:30:07;95143.81;;;9.93
48003;BMP280;33768;48.578;11.574;2024-03-25T16:33:11;95143.09;;;9.85
48003;BMP280;33768;48.578;11.574;2024-03-25T16:36:15;95140.38;;;9.78
48003;BMP280;33768;48.578;11.574;2024-03-25T16:39:33;95142.75;;;9.67
48003;BMP280;33768;48.578;11.574;2024-03-25T16:53:39;95128.28;;;9.35
48003;BMP280;33768;48.578;11.574;2024-03-25T16:56:50;95119.97;;;9.25
48003;BMP280;33768;48.578;11.574;2024-03-25T16:59:55;95122.88;;;9.20
48003;BMP280;33768;48.578;11.574;2024-03-25T17:02:59;95117.59;;;9.14
48003;BMP280;33768;48.578;11.574;2024-03-25T17:06:04;95121.59;;;9.06
48003;BMP280;33768;48.578;11.574;2024-03-25T17:09:09;95120.34;;;9.00
48003;BMP280;33768;48.578;11.574;2024-03-25T17:12:14;95123.59;;;8.91
48003;BMP280;33768;48.578;11.574;2024-03-25T17:15:19;95121.59;;;8.84
48003;BMP280;33768;48.578;11.574;2024-03-25T17:18:23;95108.53;;;8.75
48003;BMP280;33768;48.578;11.574;2024-03-25T17:21:28;95103.63;;;8.66
48003;BMP280;33768;48.578;11.574;2024-03-25T17:24:32;95102.72;;;8.56
48003;BMP280;33768;48.578;11.574;2024-03-25T17:27:37;95101.06;;;8.46
48003;BMP280;33768;48.578;11.574;2024-03-25T17:30:41;95095.44;;;8.37
48003;BMP280;33768;48.578;11.574;2024-03-25T17:33:48;95103.22;;;8.25
48003;BMP280;33768;48.578;11.574;2024-03-25T17:36:52;95099.56;;;8.15
48003;BMP280;33768;48.578;11.574;2024-03-25T17:39:57;95092.44;;;8.05
48003;BMP280;33768;48.578;11.574;2024-03-25T17:43:02;95089.13;;;7.92
48003;BMP280;33768;48.578;11.574;2024-03-25T17:46:10;95095.22;;;7.78
48003;BMP280;33768;48.578;11.574;2024-03-25T17:49:15;95089.22;;;7.64
48003;BMP280;33768;48.578;11.574;2024-03-25T17:52:20;95091.50;;;7.53